Time;durP1;ratioP1;P1;durP2;ratioP2;P2;SDS_P1;SDS_P2;PMS_P1;PMS_P2;Temp;Humidity;BMP_temperature;BMP_pressure;BME280_temperature;BME280_humidity;BME280_pressure;Samples;Min_cycle;Max_cycle;Signal;HPM_P1;HPM_P2
2023/05/31 00:02:25;;;;;;;2.72;1.42;;;;;;;17.63;39.27;97618.81;4897580;28;20223;-80
2023/05/31 00:04:50;;;;;;;2.88;1.40;;;;;;;17.57;39.97;97626.00;4875107;28;20273;-79
2023/05/31 00:07:16;;;;;;;3.42;1.48;;;;;;;17.58;40.23;97621.50;4880353;28;20494;-80
2023/05/31 00:09:41;;;;;;;3.30;1.40;;;;;;;17.67;39.74;97619.09;4886549;28;20210;-78
2023/05/31 00:12:07;;;;;;;3.50;1.38;;;;;;;17.60;39.53;97617.56;4891844;28;20274;-79
2023/05/31 00:14:33;;;;;;;4.80;1.60;;;;;;;17.48;39.54;97616.34;4907208;28;20822;-79
2023/05/31 00:16:58;;;;;;;3.88;1.50;;;;;;;17.45;40.17;97622.97;4894828;28;20264;-78
2023/05/31 00:19:23;;;;;;;6.57;1.67;;;;;;;17.54;39.70;97620.50;4881717;28;20288;-79
2023/05/31 00:21:49;;;;;;;4.05;1.30;;;;;;;17.46;40.68;97618.47;4879199;28;20300;-79
2023/05/31 00:24:15;;;;;;;3.42;1.35;;;;;;;17.49;40.35;97621.34;4896098;28;20401;-81
2023/05/31 00:26:41;;;;;;;3.60;1.48;;;;;;;17.30;40.56;97621.25;4912603;28;20183;-79
2023/05/31 00:29:06;;;;;;;4.28;1.38;;;;;;;17.26;40.70;97620.25;4895768;28;20223;-79
2023/05/31 00:31:32;;;;;;;4.03;1.52;;;;;;;17.10;41.18;97611.69;4895259;28;20580;-80
2023/05/31 00:33:57;;;;;;;5.15;1.80;;;;;;;17.11;41.16;97613.25;4906046;28;20255;-79
2023/05/31 00:36:23;;;;;;;4.90;1.60;;;;;;;17.11;40.93;97621.16;4894614;28;20196;-79
2023/05/31 00:38:48;;;;;;;4.88;1.50;;;;;;;17.08;41.52;97618.28;4913651;28;20202;-79
2023/05/31 00:41:14;;;;;;;4.57;1.60;;;;;;;16.88;41.71;97606.88;4910038;28;20167;-79
2023/05/31 00:43:39;;;;;;;3.53;1.60;;;;;;;16.91;42.05;97619.44;4893907;28;20211;-79
2023/05/31 00:46:06;;;;;;;4.72;1.48;;;;;;;16.86;41.57;97619.47;4913949;28;20211;-79
2023/05/31 00:48:31;;;;;;;2.72;1.52;;;;;;;16.84;41.58;97618.97;4893672;28;20209;-78
2023/05/31 00:50:57;;;;;;;2.58;1.25;;;;;;;16.76;42.58;97625.59;4896832;28;20609;-79
2023/05/31 00:53:22;;;;;;;4.25;1.45;;;;;;;16.65;42.57;97624.06;4895862;28;20159;-79
2023/05/31 00:55:49;;;;;;;8.23;1.95;;;;;;;16.69;42.20;97613.78;4880090;28;20277;-79
2023/05/31 00:58:16;;;;;;;3.53;1.50;;;;;;;16.74;42.33;97621.63;4877581;28;20250;-79
2023/05/31 01:00:42;;;;;;;4.68;1.65;;;;;;;16.70;42.30;97624.03;4895440;28;20742;-79
2023/05/31 01:03:08;;;;;;;5.75;1.80;;;;;;;16.53;42.69;97618.34;4893121;22;20287;-83
2023/05/31 01:05:35;;;;;;;3.00;1.30;;;;;;;16.41;42.88;97613.41;4880283;28;20214;-82
2023/05/31 01:08:00;;;;;;;4.85;1.55;;;;;;;16.36;43.01;97618.72;4874518;28;20440;-81
2023/05/31 01:10:26;;;;;;;4.60;1.55;;;;;;;16.45;42.47;97612.63;4868694;28;20195;-81
2023/05/31 01:13:27;;;;;;;4.20;1.20;;;;;;;16.53;42.50;97619.13;4863018;28;20315;-82
2023/05/31 01:16:17;;;;;;;6.20;1.65;;;;;;;16.63;43.11;97618.28;4880606;28;20206;-82
2023/05/31 01:18:54;;;;;;;5.85;1.70;;;;;;;16.52;43.08;97627.28;4865309;28;20293;-82
2023/05/31 01:21:27;;;;;;;6.60;1.70;;;;;;;16.58;43.44;97628.84;4867226;29;20156;-83
2023/05/31 01:24:31;;;;;;;3.78;1.30;;;;;;;16.63;43.03;97629.59;4843977;29;20070;-82
2023/05/31 01:27:00;;;;;;;3.63;1.35;;;;;;;16.47;43.27;97620.22;4811107;29;20224;-82
2023/05/31 01:29:26;;;;;;;3.90;1.70;;;;;;;16.52;43.51;97625.47;4806985;29;20201;-81
2023/05/31 01:31:52;;;;;;;3.33;1.40;;;;;;;16.51;43.29;97621.25;4800140;29;20285;-82
2023/05/31 01:34:18;;;;;;;5.93;1.73;;;;;;;16.42;43.42;97622.91;4840682;29;20683;-82
2023/05/31 01:36:43;;;;;;;4.13;1.95;;;;;;;16.40;43.35;97619.72;4813528;29;20190;-82
2023/05/31 01:39:10;;;;;;;3.75;1.67;;;;;;;16.45;42.75;97614.44;4800029;29;20652;-82
2023/05/31 01:41:39;;;;;;;3.30;1.30;;;;;;;16.49;43.49;97628.63;4796124;29;20226;-81
2023/05/31 01:44:05;;;;;;;4.43;1.70;;;;;;;16.46;43.12;97621.28;4804490;29;20294;-82
2023/05/31 01:46:31;;;;;;;4.53;1.45;;;;;;;16.39;43.17;97624.19;4823458;29;20380;-81
2023/05/31 01:48:57;;;;;;;4.93;1.60;;;;;;;16.51;43.51;97621.25;4806870;29;20385;-82
2023/05/31 01:51:22;;;;;;;4.18;1.70;;;;;;;16.46;42.74;97619.44;4803297;29;20206;-82
2023/05/31 01:53:48;;;;;;;4.25;1.35;;;;;;;16.39;43.31;97613.69;4810095;29;20206;-82
2023/05/31 01:56:14;;;;;;;4.90;1.45;;;;;;;16.40;43.31;97623.16;4823109;29;20450;-81
2023/05/31 01:58:41;;;;;;;4.93;1.40;;;;;;;16.42;43.98;97618.41;4815774;29;20189;-81
2023/05/31 02:01:10;;;;;;;5.70;1.90;;;;;;;16.39;43.54;97623.44;4854932;28;20161;-82
2023/05/31 02:03:36;;;;;;;4.55;1.83;;;;;;;16.26;44.22;97615.09;4853841;29;20372;-82
2023/05/31 02:06:01;;;;;;;3.10;1.88;;;;;;;16.26;43.92;97620.34;4853325;29;20774;-82
2023/05/31 02:08:27;;;;;;;5.97;1.92;;;;;;;16.16;44.38;97617.75;4846586;29;20651;-82
2023/05/31 02:10:54;;;;;;;3.60;1.45;;;;;;;16.04;44.82;97614.63;4850621;29;20312;-81
2023/05/31 02:13:22;;;;;;;4.57;1.80;;;;;;;16.06;44.68;97623.06;4852049;29;20240;-82
2023/05/31 02:15:47;;;;;;;3.17;1.63;;;;;;;16.01;44.30;97608.09;4868718;28;20290;-80
2023/05/31 02:18:16;;;;;;;4.72;1.80;;;;;;;16.02;44.22;97619.38;4880569;28;20193;-80
2023/05/31 02:20:43;;;;;;;3.33;1.85;;;;;;;15.97;45.08;97622.00;4840951;28;20207;-80
2023/05/31 02:23:08;;;;;;;3.97;2.17;;;;;;;15.98;44.56;97628.84;4839150;29;20710;-81
2023/05/31 02:25:33;;;;;;;4.57;1.92;;;;;;;15.87;45.19;97613.13;4856572;29;20291;-80
2023/05/31 02:27:59;;;;;;;5.07;1.92;;;;;;;15.90;45.54;97622.28;4854745;29;20176;-80
2023/05/31 02:30:27;;;;;;;4.10;1.80;;;;;;;15.82;45.11;97617.63;4869644;29;20210;-80
2023/05/31 02:32:53;;;;;;;4.55;1.85;;;;;;;15.70;45.98;97612.63;4858054;29;20183;-81
2023/05/31 02:35:19;;;;;;;5.88;1.70;;;;;;;15.50;47.02;97622.09;4882554;28;20282;-79
2023/05/31 02:37:45;;;;;;;4.10;1.67;;;;;;;15.44;46.73;97625.78;4866165;29;20204;-80
2023/05/31 02:40:10;;;;;;;3.60;1.90;;;;;;;15.33;46.33;97624.22;4869127;29;20180;-81
2023/05/31 02:42:39;;;;;;;4.10;1.60;;;;;;;15.22;47.26;97625.28;4849866;29;20192;-80
2023/05/31 02:45:05;;;;;;;3.97;1.70;;;;;;;15.11;46.79;97627.09;4867649;29;20053;-80
2023/05/31 02:47:31;;;;;;;4.70;2.53;;;;;;;15.02;47.83;97618.19;4860737;29;20208;-81
2023/05/31 02:49:56;;;;;;;4.35;2.00;;;;;;;15.09;47.39;97619.50;4867538;29;20279;-80
2023/05/31 02:52:23;;;;;;;4.35;1.80;;;;;;;14.97;47.94;97624.22;4851737;29;20649;-81
2023/05/31 02:54:49;;;;;;;5.22;2.00;;;;;;;14.84;48.36;97617.66;4850982;29;20168;-80
2023/05/31 02:57:15;;;;;;;3.75;1.75;;;;;;;14.95;47.83;97621.84;4851907;29;20327;-80
2023/05/31 02:59:40;;;;;;;5.70;1.75;;;;;;;15.11;47.54;97627.09;4867903;29;20226;-80
2023/05/31 03:02:05;;;;;;;7.70;2.63;;;;;;;15.05;47.53;97623.69;4847494;28;20609;-79
2023/05/31 03:04:31;;;;;;;5.43;2.00;;;;;;;14.97;48.26;97618.97;4855096;29;20219;-80
2023/05/31 03:06:57;;;;;;;2.58;1.50;;;;;;;14.91;48.35;97626.06;4866187;28;20211;-80
2023/05/31 03:09:23;;;;;;;5.75;1.80;;;;;;;14.86;48.22;97620.03;4860969;29;20630;-81
2023/05/31 03:11:48;;;;;;;4.97;1.80;;;;;;;14.68;49.21;97623.91;4854210;29;20740;-80
2023/05/31 03:14:14;;;;;;;4.35;1.75;;;;;;;14.73;48.82;97629.16;4853880;29;20208;-80
2023/05/31 03:16:39;;;;;;;5.85;1.95;;;;;;;14.90;48.18;97628.94;4850093;28;20192;-79
2023/05/31 03:19:05;;;;;;;4.05;2.05;;;;;;;14.84;48.89;97622.91;4847510;29;20204;-80
2023/05/31 03:21:30;;;;;;;5.78;1.75;;;;;;;14.74;48.62;97628.13;4869582;29;20199;-80
2023/05/31 03:23:56;;;;;;;3.72;2.58;;;;;;;14.73;49.20;97637.81;4854006;29;20280;-80
2023/05/31 03:26:21;;;;;;;5.05;1.95;;;;;;;14.69;49.56;97631.53;4854059;29;20282;-81
2023/05/31 03:28:46;;;;;;;3.63;2.08;;;;;;;14.60;49.43;97635.72;4869662;29;20290;-79
2023/05/31 03:31:12;;;;;;;7.30;2.28;;;;;;;14.53;49.34;97627.25;4853588;29;20180;-80
2023/05/31 03:33:37;;;;;;;4.22;1.92;;;;;;;14.79;48.75;97631.53;4868554;29;20250;-79
2023/05/31 03:36:04;;;;;;;5.78;1.90;;;;;;;14.84;48.82;97638.63;4868951;29;20206;-80
2023/05/31 03:38:30;;;;;;;4.45;2.45;;;;;;;14.86;49.16;97631.28;4837951;29;20633;-81
2023/05/31 03:40:55;;;;;;;5.28;2.42;;;;;;;14.96;49.13;97633.94;4855620;29;20245;-80
2023/05/31 03:43:21;;;;;;;4.97;2.08;;;;;;;15.00;48.93;97636.03;4870121;29;20264;-80
2023/05/31 03:45:46;;;;;;;5.38;1.90;;;;;;;14.88;49.71;97637.06;4852574;29;20172;-80
2023/05/31 03:48:11;;;;;;;5.38;2.22;;;;;;;14.95;48.64;97636.81;4869689;29;20199;-80
2023/05/31 03:50:39;;;;;;;4.75;1.77;;;;;;;15.25;48.62;97629.97;4867951;28;20261;-79
2023/05/31 03:53:04;;;;;;;5.50;2.13;;;;;;;15.27;48.48;97625.28;4848735;29;20721;-79
2023/05/31 03:55:30;;;;;;;6.68;2.15;;;;;;;15.40;48.72;97629.19;4847641;29;20177;-80
2023/05/31 03:57:55;;;;;;;5.03;2.38;;;;;;;15.17;49.09;97637.34;4884148;28;20180;-79
2023/05/31 04:00:21;;;;;;;8.32;2.25;;;;;;;15.19;49.24;97631.06;4848131;29;20712;-79
2023/05/31 04:02:46;;;;;;;6.47;2.05;;;;;;;15.25;49.36;97633.41;4835927;29;20292;-81
2023/05/31 04:05:12;;;;;;;6.20;2.20;;;;;;;15.13;50.16;97632.88;4849238;29;20200;-79
2023/05/31 04:07:37;;;;;;;6.68;2.65;;;;;;;15.26;50.08;97631.56;4859868;28;20184;-80
2023/05/31 04:10:03;;;;;;;6.20;2.22;;;;;;;15.44;49.33;97638.91;4843959;29;20199;-79
2023/05/31 04:12:28;;;;;;;4.63;2.05;;;;;;;15.48;49.41;97633.91;4853070;29;20226;-78
2023/05/31 04:14:54;;;;;;;6.40;2.20;;;;;;;15.54;49.00;97633.66;4844224;29;20637;-79
2023/05/31 04:17:19;;;;;;;5.13;1.90;;;;;;;15.43;49.52;97637.31;4865714;29;20283;-78
2023/05/31 04:19:45;;;;;;;6.60;2.10;;;;;;;15.71;48.91;97637.81;4848567;29;20240;-80
2023/05/31 04:22:10;;;;;;;5.85;2.00;;;;;;;15.62;48.67;97628.91;4867565;29;20142;-80
2023/05/31 04:24:36;;;;;;;6.15;1.98;;;;;;;15.73;49.20;97644.38;4851083;29;20272;-81
2023/05/31 04:27:02;;;;;;;3.65;1.80;;;;;;;15.70;48.44;97638.88;4868977;29;20211;-79
2023/05/31 04:29:28;;;;;;;6.18;2.08;;;;;;;15.58;49.57;97647.03;4854130;29;20286;-80
2023/05/31 04:31:53;;;;;;;5.13;1.92;;;;;;;15.66;49.46;97640.44;4867794;29;20213;-81
2023/05/31 04:34:20;;;;;;;4.38;2.30;;;;;;;15.42;50.22;97633.16;4868555;29;20215;-80
2023/05/31 04:36:48;;;;;;;4.55;2.13;;;;;;;15.72;49.13;97645.41;4865517;29;20199;-79
2023/05/31 04:39:15;;;;;;;5.88;2.17;;;;;;;15.75;48.96;97636.28;4863979;28;20226;-81
2023/05/31 04:41:41;;;;;;;6.20;2.22;;;;;;;15.76;48.86;97647.53;4866269;28;20292;-78
2023/05/31 04:44:07;;;;;;;5.15;1.80;;;;;;;15.93;47.83;97653.28;4851186;29;20195;-79
2023/05/31 04:46:32;;;;;;;6.07;1.92;;;;;;;15.93;48.50;97649.88;4867507;29;20508;-79
2023/05/31 04:49:00;;;;;;;3.83;1.90;;;;;;;15.82;48.65;97636.78;4863056;29;20569;-79
2023/05/31 04:51:26;;;;;;;6.10;2.17;;;;;;;15.90;49.72;97644.09;4868934;29;20271;-80
2023/05/31 04:53:52;;;;;;;5.90;2.42;;;;;;;15.93;49.35;97642.00;4864196;28;20142;-80
2023/05/31 04:56:18;;;;;;;4.07;2.05;;;;;;;15.87;48.94;97639.38;4867714;29;20180;-80
2023/05/31 04:58:44;;;;;;;6.07;2.00;;;;;;;15.94;48.97;97638.28;4867678;29;20219;-79
2023/05/31 05:01:09;;;;;;;8.88;2.40;;;;;;;16.06;49.04;97636.97;4851059;29;20527;-80
2023/05/31 05:03:35;;;;;;;5.38;2.28;;;;;;;15.95;49.19;97637.25;4842885;29;20165;-82
2023/05/31 05:06:11;;;;;;;5.60;2.28;;;;;;;16.05;49.10;97637.22;4869548;28;20215;-78
2023/05/31 05:08:36;;;;;;;5.65;2.25;;;;;;;16.25;49.10;97639.78;4864564;29;20288;-80
2023/05/31 05:11:02;;;;;;;5.15;2.50;;;;;;;16.36;49.22;97650.25;4850017;29;20328;-80
2023/05/31 05:13:28;;;;;;;7.40;2.47;;;;;;;16.54;48.14;97657.53;4844994;29;20658;-82
2023/05/31 05:15:53;;;;;;;4.80;2.20;;;;;;;16.18;48.85;97665.56;4864473;29;20104;-82
2023/05/31 05:18:18;;;;;;;5.43;2.55;;;;;;;16.27;49.47;97647.38;4859638;28;20275;-84
2023/05/31 05:20:44;;;;;;;3.40;1.83;;;;;;;16.28;49.37;97652.38;4837474;29;20233;-82
2023/05/31 05:23:09;;;;;;;5.25;2.25;;;;;;;16.46;48.91;97647.56;4839599;29;20270;-82
2023/05/31 05:25:35;;;;;;;6.90;2.70;;;;;;;16.44;48.69;97650.47;4858473;29;20145;-82
2023/05/31 05:28:01;;;;;;;5.13;2.30;;;;;;;16.11;49.71;97659.81;4856359;29;20288;-84
2023/05/31 05:30:27;;;;;;;5.22;2.13;;;;;;;16.31;49.31;97652.88;4855375;29;20142;-78
2023/05/31 05:32:52;;;;;;;5.88;2.47;;;;;;;16.64;49.14;97657.47;4870916;28;20168;-82
2023/05/31 05:35:18;;;;;;;9.77;3.15;;;;;;;16.75;48.88;97654.78;4855408;29;20267;-79
2023/05/31 05:37:43;;;;;;;4.85;1.88;;;;;;;16.60;48.82;97653.00;4855092;29;20247;-82
2023/05/31 05:40:09;;;;;;;5.10;2.38;;;;;;;16.54;48.89;97665.41;4863629;29;20581;-79
2023/05/31 05:42:37;;;;;;;8.20;2.38;;;;;;;16.82;48.76;97663.91;4869793;28;20785;-83
2023/05/31 05:45:07;;;;;;;5.80;1.92;;;;;;;16.84;48.52;97667.13;4857449;29;20187;-81
2023/05/31 05:47:33;;;;;;;4.03;2.30;;;;;;;16.99;48.50;97658.31;4859034;29;20290;-81
2023/05/31 05:49:59;;;;;;;8.43;2.30;;;;;;;16.95;48.12;97665.19;4852017;29;20260;-79
2023/05/31 05:52:25;;;;;;;4.95;2.28;;;;;;;17.07;48.17;97658.78;4861541;29;20146;-83
2023/05/31 05:54:50;;;;;;;5.18;2.03;;;;;;;17.02;47.53;97652.53;4837556;29;20243;-82
2023/05/31 05:57:15;;;;;;;8.00;2.45;;;;;;;17.15;47.34;97652.94;4835180;29;20278;-82
2023/05/31 05:59:42;;;;;;;5.90;2.35;;;;;;;17.49;46.69;97666.09;4870545;29;20267;-81
2023/05/31 06:02:07;;;;;;;4.10;2.22;;;;;;;17.59;46.51;97659.97;4852651;29;20181;-82
2023/05/31 06:04:33;;;;;;;8.88;2.28;;;;;;;17.67;46.57;97658.59;4855316;29;20581;-79
2023/05/31 06:06:58;;;;;;;5.32;2.08;;;;;;;18.02;46.12;97667.97;4871133;29;20338;-81
2023/05/31 06:09:24;;;;;;;4.65;2.45;;;;;;;17.94;45.61;97658.84;4875497;29;20398;-82
2023/05/31 06:11:49;;;;;;;5.78;2.42;;;;;;;18.23;45.87;97665.13;4844161;29;20244;-83
2023/05/31 06:14:16;;;;;;;5.57;2.35;;;;;;;18.42;44.83;97668.59;4858951;29;20525;-81
2023/05/31 06:16:41;;;;;;;6.22;2.25;;;;;;;18.14;45.10;97671.00;4876229;29;20188;-79
2023/05/31 06:19:07;;;;;;;5.38;2.20;;;;;;;18.42;44.84;97665.94;4858823;29;20219;-81
2023/05/31 06:21:32;;;;;;;4.10;2.00;;;;;;;18.62;43.77;97661.47;4860584;29;20319;-82
2023/05/31 06:24:00;;;;;;;7.25;2.00;;;;;;;18.76;42.70;97654.41;4868802;29;20241;-83
2023/05/31 06:26:25;;;;;;;3.95;2.00;;;;;;;19.30;43.18;97667.38;4854294;29;20268;-84
2023/05/31 06:28:51;;;;;;;6.57;2.10;;;;;;;19.12;42.71;97663.69;4857586;29;20400;-83
2023/05/31 06:31:16;;;;;;;4.28;1.65;;;;;;;19.33;41.90;97657.03;4855919;29;20215;-82
2023/05/31 06:33:42;;;;;;;8.23;2.70;;;;;;;19.65;42.00;97658.84;4859980;29;20287;-83
2023/05/31 06:36:07;;;;;;;5.22;2.05;;;;;;;19.57;41.06;97664.00;4874998;29;20137;-82
2023/05/31 06:38:33;;;;;;;5.53;2.05;;;;;;;19.73;41.63;97660.03;4844441;29;20418;-82
2023/05/31 06:41:02;;;;;;;6.07;2.15;;;;;;;19.76;39.97;97669.28;4876094;29;20570;-83
2023/05/31 06:43:27;;;;;;;3.03;1.67;;;;;;;19.90;40.31;97648.91;4898341;28;20182;-82
2023/05/31 06:45:53;;;;;;;5.97;2.35;;;;;;;20.55;39.79;97665.63;4876197;29;20287;-81
2023/05/31 06:48:18;;;;;;;4.80;1.92;;;;;;;20.38;38.59;97653.78;4869530;29;20140;-82
2023/05/31 06:50:44;;;;;;;6.20;1.88;;;;;;;20.20;39.55;97652.03;4863457;29;20220;-83
2023/05/31 06:53:12;;;;;;;3.90;1.85;;;;;;;20.71;39.04;97655.50;4862239;29;20514;-83
2023/05/31 06:55:41;;;;;;;4.32;2.08;;;;;;;20.71;37.95;97658.16;4876809;28;20291;-82
2023/05/31 06:58:06;;;;;;;3.97;1.77;;;;;;;21.13;37.12;97656.94;4869115;29;20367;-84
2023/05/31 07:00:32;;;;;;;2.97;1.88;;;;;;;21.20;37.65;97666.31;4883505;29;20395;-85
2023/05/31 07:02:57;;;;;;;4.13;2.08;;;;;;;21.33;36.62;97660.16;4904029;28;20327;-84
2023/05/31 07:05:23;;;;;;;3.15;1.58;;;;;;;21.84;36.24;97653.59;4861762;29;20372;-83
2023/05/31 07:07:48;;;;;;;5.88;2.33;;;;;;;21.74;36.33;97653.09;4877292;29;20261;-84
2023/05/31 07:10:14;;;;;;;5.18;2.00;;;;;;;22.01;36.21;97652.88;4883864;29;20294;-82
2023/05/31 07:12:40;;;;;;;3.50;1.60;;;;;;;22.24;35.70;97656.22;4885346;28;20331;-85
2023/05/31 07:15:08;;;;;;;5.35;1.98;;;;;;;22.23;35.08;97648.56;4852268;29;20113;-83
2023/05/31 07:17:34;;;;;;;7.68;2.13;;;;;;;22.25;35.18;97641.88;4883318;28;20583;-84
2023/05/31 07:19:59;;;;;;;3.75;1.90;;;;;;;22.29;34.94;97647.34;4864036;29;20199;-84
2023/05/31 07:22:25;;;;;;;2.85;1.98;;;;;;;22.49;34.86;97653.94;4849552;29;20596;-85
2023/05/31 07:24:50;;;;;;;3.88;2.20;;;;;;;22.12;34.43;97652.59;4876212;29;20636;-81
2023/05/31 07:27:16;;;;;;;5.15;1.80;;;;;;;22.31;34.36;97642.53;4858193;29;20675;-84
2023/05/31 07:29:41;;;;;;;6.03;2.00;;;;;;;22.41;34.10;97646.75;4865859;29;20510;-83
2023/05/31 07:32:07;;;;;;;2.97;1.80;;;;;;;22.08;34.43;97641.81;4865838;29;20120;-84
2023/05/31 07:34:32;;;;;;;4.35;1.90;;;;;;;22.16;34.79;97642.94;4880938;29;20260;-82
2023/05/31 07:36:58;;;;;;;4.97;1.70;;;;;;;22.38;34.60;97634.09;4864836;29;20276;-82
2023/05/31 07:39:30;;;;;;;3.20;2.00;;;;;;;22.15;35.05;97631.53;4863568;29;20288;-82
2023/05/31 07:41:55;;;;;;;5.45;1.80;;;;;;;22.45;35.02;97626.50;4876246;29;20371;-84
2023/05/31 07:44:21;;;;;;;3.33;2.03;;;;;;;22.72;34.22;97645.84;4876861;29;20487;-82
2023/05/31 07:46:47;;;;;;;4.57;1.58;;;;;;;23.24;33.88;97640.53;4876103;29;20315;-85
2023/05/31 07:49:12;;;;;;;3.72;1.70;;;;;;;23.37;33.57;97630.81;4882461;29;20790;-85
2023/05/31 07:51:38;;;;;;;3.17;1.70;;;;;;;23.44;33.62;97622.34;4884949;29;20253;-82
2023/05/31 07:54:03;;;;;;;3.90;2.10;;;;;;;23.51;32.97;97636.72;4851855;29;20519;-84
2023/05/31 07:56:29;;;;;;;2.58;1.98;;;;;;;23.60;32.56;97634.03;4883605;29;20149;-86
2023/05/31 07:58:54;;;;;;;2.45;1.73;;;;;;;23.50;32.48;97634.38;4863955;29;20217;-82
2023/05/31 08:01:22;;;;;;;2.72;1.60;;;;;;;23.95;32.72;97631.25;4861925;29;20144;-83
2023/05/31 08:03:49;;;;;;;4.65;1.90;;;;;;;24.24;32.66;97627.03;4864519;29;20341;-84
2023/05/31 08:06:14;;;;;;;3.95;2.03;;;;;;;24.15;32.25;97627.06;4865093;29;20341;-84
2023/05/31 08:08:41;;;;;;;4.97;1.73;;;;;;;23.71;32.07;97627.25;4852468;29;20449;-83
2023/05/31 08:11:06;;;;;;;3.53;2.10;;;;;;;23.85;31.59;97628.94;4849091;29;20466;-84
2023/05/31 08:13:32;;;;;;;3.15;1.73;;;;;;;23.88;31.69;97607.03;4858890;29;20267;-85
2023/05/31 08:15:57;;;;;;;5.32;2.30;;;;;;;23.83;32.10;97621.28;4857924;29;20191;-82
2023/05/31 08:18:22;;;;;;;4.03;2.30;;;;;;;23.83;32.00;97621.28;4850957;29;20152;-85
2023/05/31 08:20:48;;;;;;;3.08;1.70;;;;;;;24.22;32.07;97614.03;4864288;29;20211;-84
2023/05/31 08:23:20;;;;;;;3.55;2.28;;;;;;;24.64;31.73;97605.31;4846735;29;20207;-84
2023/05/31 08:25:46;;;;;;;5.68;2.40;;;;;;;24.82;32.02;97608.63;4862389;29;20327;-85
2023/05/31 08:28:12;;;;;;;2.85;2.00;;;;;;;24.67;31.18;97602.00;4883151;29;20321;-84
2023/05/31 08:30:37;;;;;;;4.22;2.22;;;;;;;25.13;31.09;97599.38;4890905;28;20195;-83
2023/05/31 08:33:03;;;;;;;3.17;1.67;;;;;;;24.81;30.20;97607.03;4881621;29;20168;-83
2023/05/31 08:35:28;;;;;;;4.10;1.80;;;;;;;24.95;30.22;97604.91;4852347;29;20286;-87
2023/05/31 08:37:57;;;;;;;4.88;1.90;;;;;;;24.81;30.13;97607.84;4846563;29;20211;-83
2023/05/31 08:40:23;;;;;;;3.40;2.17;;;;;;;24.95;29.82;97604.91;4864631;29;20226;-84
2023/05/31 08:42:54;;;;;;;5.38;1.80;;;;;;;25.43;29.75;97610.72;4882144;29;20204;-83
2023/05/31 08:45:21;;;;;;;5.35;2.03;;;;;;;25.26;29.43;97609.00;4882120;29;20707;-79
2023/05/31 08:48:29;;;;;;;4.20;2.30;;;;;;;25.81;28.96;97609.63;4857519;29;20094;-83
2023/05/31 08:50:57;;;;;;;3.33;2.00;;;;;;;25.93;29.01;97606.94;4899549;28;20031;-84
2023/05/31 08:53:26;;;;;;;4.03;1.95;;;;;;;26.34;29.58;97602.47;4868226;29;20336;-84
2023/05/31 08:55:52;;;;;;;3.30;2.38;;;;;;;26.19;28.07;97600.50;4854642;29;20280;-82
2023/05/31 08:58:18;;;;;;;5.07;2.20;;;;;;;25.86;28.12;97598.72;4862182;29;20346;-84
2023/05/31 09:00:44;;;;;;;3.88;1.85;;;;;;;25.93;28.56;97593.59;4863775;29;20164;-84
2023/05/31 09:03:11;;;;;;;3.67;1.83;;;;;;;26.35;28.88;97598.66;4864604;29;20266;-81
2023/05/31 09:05:37;;;;;;;5.07;2.22;;;;;;;26.28;27.75;97592.34;4883139;28;20230;-82
2023/05/31 09:08:03;;;;;;;4.65;2.22;;;;;;;26.15;28.67;97605.72;4848529;29;20506;-83
2023/05/31 09:10:32;;;;;;;3.33;1.90;;;;;;;26.44;27.67;97600.44;4880855;29;20187;-83
2023/05/31 09:12:58;;;;;;;3.88;1.90;;;;;;;25.88;27.61;97593.81;4845362;29;20302;-83
2023/05/31 09:15:24;;;;;;;3.88;1.88;;;;;;;26.39;28.37;97589.97;4865548;29;20211;-82
2023/05/31 09:17:55;;;;;;;5.38;1.80;;;;;;;26.51;27.60;97587.25;4882888;29;20207;-82
2023/05/31 09:20:30;;;;;;;4.82;2.08;;;;;;;26.07;27.21;97587.94;4846407;29;20285;-82
2023/05/31 09:22:55;;;;;;;4.45;2.25;;;;;;;26.04;27.71;97593.94;4879499;29;20294;-84
2023/05/31 09:25:21;;;;;;;4.28;2.70;;;;;;;26.03;27.34;97591.59;4874684;29;20409;-81
2023/05/31 09:27:47;;;;;;;3.03;2.10;;;;;;;26.14;28.22;97584.72;4845322;29;20457;-82
2023/05/31 09:30:14;;;;;;;3.85;1.98;;;;;;;26.44;27.82;97590.53;4860977;29;20362;-84
2023/05/31 09:32:40;;;;;;;3.58;1.85;;;;;;;26.54;27.59;97582.06;4869522;29;20418;-82
2023/05/31 09:35:16;;;;;;;2.58;1.77;;;;;;;27.10;26.43;97580.47;4882233;29;20319;-84
2023/05/31 09:37:49;;;;;;;3.95;1.90;;;;;;;27.41;26.98;97577.06;4872552;28;20199;-84
2023/05/31 09:40:26;;;;;;;5.15;2.00;;;;;;;27.21;26.66;97567.38;4843967;29;20325;-83
2023/05/31 09:42:53;;;;;;;5.32;2.33;;;;;;;26.88;26.35;97587.16;4839204;29;20168;-83
2023/05/31 09:45:19;;;;;;;3.38;1.77;;;;;;;27.17;25.64;97588.66;4859162;29;20259;-80
2023/05/31 09:47:45;;;;;;;3.13;2.20;;;;;;;26.93;26.11;97578.13;4875632;29;20376;-82
2023/05/31 09:50:11;;;;;;;5.22;2.05;;;;;;;27.33;26.23;97577.25;4875662;28;20439;-82
2023/05/31 09:52:38;;;;;;;3.97;2.15;;;;;;;26.91;26.23;97576.56;4859752;29;20276;-81
2023/05/31 09:55:06;;;;;;;3.15;2.10;;;;;;;27.04;25.57;97577.28;4876801;28;20399;-83
2023/05/31 09:57:39;;;;;;;4.43;2.10;;;;;;;27.46;25.46;97579.47;4878612;28;20207;-82
2023/05/31 10:00:20;;;;;;;4.95;1.70;;;;;;;27.57;25.20;97568.25;4882232;29;20290;-82
2023/05/31 10:02:51;;;;;;;4.68;2.35;;;;;;;27.73;25.50;97590.44;4878158;28;20148;-83
2023/05/31 10:05:20;;;;;;;5.13;2.63;;;;;;;27.59;25.68;97582.06;4862657;29;20286;-82
2023/05/31 10:07:48;;;;;;;4.85;2.22;;;;;;;27.50;24.84;97573.44;4846592;29;20277;-83
2023/05/31 10:10:13;;;;;;;4.20;2.10;;;;;;;27.74;25.00;97577.81;4823072;29;20216;-83
2023/05/31 10:12:49;;;;;;;5.88;3.13;;;;;;;28.22;24.38;97565.13;4845666;29;20194;-84
2023/05/31 10:15:17;;;;;;;3.17;2.00;;;;;;;28.78;25.47;97566.63;4856728;28;20650;-81
2023/05/31 10:17:49;;;;;;;3.38;1.88;;;;;;;28.63;24.36;97570.19;4863345;29;20627;-81
2023/05/31 10:20:16;;;;;;;4.35;2.30;;;;;;;28.67;24.77;97569.13;4885756;28;20027;-84
2023/05/31 10:22:43;;;;;;;4.35;1.90;;;;;;;28.65;25.51;97559.88;4898612;28;20342;-84
2023/05/31 10:25:41;;;;;;;2.20;1.90;;;;;;;28.34;26.26;97572.25;4874912;29;20654;-82
2023/05/31 10:28:13;;;;;;;4.32;2.17;;;;;;;28.18;25.56;97572.31;4872428;28;20172;-83
2023/05/31 10:30:41;;;;;;;4.35;2.30;;;;;;;27.87;25.41;97573.16;4856480;29;20111;-83
2023/05/31 10:33:07;;;;;;;3.95;1.92;;;;;;;27.63;25.14;97553.50;4856163;29;20283;-84
2023/05/31 10:35:34;;;;;;;3.75;2.10;;;;;;;28.05;24.70;97562.84;4860835;29;20230;-83
2023/05/31 10:38:06;;;;;;;2.17;2.00;;;;;;;28.26;23.99;97557.16;4843710;29;20187;-82
2023/05/31 10:40:48;;;;;;;2.65;1.90;;;;;;;28.72;23.66;97554.63;4859962;29;20717;-82
2023/05/31 10:43:32;;;;;;;3.28;2.00;;;;;;;28.61;23.60;97570.53;4862258;29;20183;-83
2023/05/31 10:46:05;;;;;;;2.47;2.28;;;;;;;28.87;23.73;97555.69;4876856;29;20199;-84
2023/05/31 10:48:53;;;;;;;4.05;2.05;;;;;;;29.09;24.01;97546.09;4851819;29;20762;-85
2023/05/31 10:51:19;;;;;;;3.65;2.63;;;;;;;28.36;24.02;97545.88;4857624;29;20374;-84
2023/05/31 10:53:46;;;;;;;3.03;1.90;;;;;;;28.90;24.35;97550.38;4881173;29;20302;-83
2023/05/31 10:56:13;;;;;;;3.22;2.00;;;;;;;28.84;25.54;97541.09;4835261;29;20278;-85
2023/05/31 10:58:53;;;;;;;3.88;2.10;;;;;;;28.26;24.05;97543.78;4856614;29;20275;-80
2023/05/31 11:01:20;;;;;;;4.03;2.10;;;;;;;28.17;24.16;97531.38;4859947;28;20227;-84
2023/05/31 11:03:53;;;;;;;2.95;1.88;;;;;;;28.71;24.58;97540.47;4877274;29;20304;-84
2023/05/31 11:06:25;;;;;;;2.67;2.00;;;;;;;28.09;24.74;97556.47;4860992;29;20642;-81
2023/05/31 11:09:01;;;;;;;4.47;2.08;;;;;;;27.64;24.60;97557.72;4839810;29;20211;-82
2023/05/31 11:11:32;;;;;;;3.40;2.13;;;;;;;28.17;24.39;97546.66;4854134;29;20197;-85
2023/05/31 11:14:03;;;;;;;3.50;1.90;;;;;;;28.33;24.04;97547.38;4855667;29;20250;-82
2023/05/31 11:16:33;;;;;;;3.25;2.00;;;;;;;27.66;24.07;97542.13;4873545;29;20274;-82
2023/05/31 11:19:06;;;;;;;3.10;1.95;;;;;;;27.90;24.98;97543.00;4854526;29;20291;-83
2023/05/31 11:21:51;;;;;;;4.65;2.22;;;;;;;27.55;23.88;97547.22;4842039;29;20645;-82
2023/05/31 11:24:35;;;;;;;;;;;;;;;27.37;25.00;97548.72;4875521;29;20184;-84
2023/05/31 11:27:03;;;;;;;3.33;1.70;;;;;;;26.95;24.64;97544.59;4864124;29;20182;-80
2023/05/31 11:29:44;;;;;;;3.58;1.73;;;;;;;26.98;25.04;97548.47;4857379;29;20287;-83
2023/05/31 11:32:44;;;;;;;5.35;1.88;;;;;;;27.13;24.53;97544.25;4874697;28;20301;-82
2023/05/31 11:35:13;;;;;;;4.78;1.80;;;;;;;27.15;25.25;97539.38;4859136;29;20206;-82
2023/05/31 11:37:40;;;;;;;3.53;1.63;;;;;;;27.35;24.22;97540.22;4876832;29;20310;-83